sensor_id;sensor_type;location;lat;lon;timestamp;temperature;humidity
4820;DHT22;2424;49.696;6.630;2023-05-10T00:02:39;13.10;99.90
4820;DHT22;2424;49.696;6.630;2023-05-10T00:08:01;13.10;99.90
4820;DHT22;2424;49.696;6.630;2023-05-10T00:13:25;13.10;99.90
4820;DHT22;2424;49.696;6.630;2023-05-10T00:18:46;13.10;99.90
4820;DHT22;2424;49.696;6.630;2023-05-10T00:24:08;13.00;99.90
4820;DHT22;2424;49.696;6.630;2023-05-10T00:29:32;13.00;99.90
4820;DHT22;2424;49.696;6.630;2023-05-10T00:34:54;13.10;99.90
4820;DHT22;2424;49.696;6.630;2023-05-10T00:40:16;13.10;99.90
4820;DHT22;2424;49.696;6.630;2023-05-10T00:45:40;13.10;99.90
4820;DHT22;2424;49.696;6.630;2023-05-10T00:51:03;13.10;99.90
4820;DHT22;2424;49.696;6.630;2023-05-10T00:56:25;13.10;99.90
4820;DHT22;2424;49.696;6.630;2023-05-10T01:01:52;13.10;99.90
4820;DHT22;2424;49.696;6.630;2023-05-10T01:07:14;13.10;99.90
4820;DHT22;2424;49.696;6.630;2023-05-10T01:12:39;13.10;99.90
4820;DHT22;2424;49.696;6.630;2023-05-10T01:18:03;13.00;99.90
4820;DHT22;2424;49.696;6.630;2023-05-10T01:23:45;12.90;99.90
4820;DHT22;2424;49.696;6.630;2023-05-10T01:35:07;12.80;99.90
4820;DHT22;2424;49.696;6.630;2023-05-10T01:40:37;12.80;99.90
4820;DHT22;2424;49.696;6.630;2023-05-10T01:46:03;12.80;99.90
4820;DHT22;2424;49.696;6.630;2023-05-10T01:51:38;12.90;99.90
4820;DHT22;2424;49.696;6.630;2023-05-10T01:57:03;12.80;99.90
4820;DHT22;2424;49.696;6.630;2023-05-10T02:02:28;12.80;99.90
4820;DHT22;2424;49.696;6.630;2023-05-10T02:07:53;12.90;99.90
4820;DHT22;2424;49.696;6.630;2023-05-10T02:13:17;12.90;99.90
4820;DHT22;2424;49.696;6.630;2023-05-10T02:18:40;12.90;99.90
4820;DHT22;2424;49.696;6.630;2023-05-10T02:24:05;12.90;99.90
4820;DHT22;2424;49.696;6.630;2023-05-10T02:29:27;12.90;99.90
4820;DHT22;2424;49.696;6.630;2023-05-10T02:34:49;12.90;99.90
4820;DHT22;2424;49.696;6.630;2023-05-10T02:40:15;12.90;99.90
4820;DHT22;2424;49.696;6.630;2023-05-10T02:45:38;12.90;99.90
4820;DHT22;2424;49.696;6.630;2023-05-10T02:51:05;12.90;99.90
4820;DHT22;2424;49.696;6.630;2023-05-10T02:56:33;12.90;99.90
4820;DHT22;2424;49.696;6.630;2023-05-10T03:01:56;12.90;99.90
4820;DHT22;2424;49.696;6.630;2023-05-10T03:07:18;12.90;99.90
4820;DHT22;2424;49.696;6.630;2023-05-10T03:12:52;12.90;99.90
4820;DHT22;2424;49.696;6.630;2023-05-10T03:18:22;12.90;99.90
4820;DHT22;2424;49.696;6.630;2023-05-10T03:23:46;12.90;99.90
4820;DHT22;2424;49.696;6.630;2023-05-10T03:29:13;12.80;99.90
4820;DHT22;2424;49.696;6.630;2023-05-10T03:34:41;12.80;99.90
4820;DHT22;2424;49.696;6.630;2023-05-10T03:40:04;12.70;99.90
4820;DHT22;2424;49.696;6.630;2023-05-10T03:45:28;12.70;99.90
4820;DHT22;2424;49.696;6.630;2023-05-10T03:50:51;12.70;99.90
4820;DHT22;2424;49.696;6.630;2023-05-10T03:56:13;12.60;99.90
4820;DHT22;2424;49.696;6.630;2023-05-10T04:01:36;12.70;99.90
4820;DHT22;2424;49.696;6.630;2023-05-10T04:06:58;12.60;99.90
4820;DHT22;2424;49.696;6.630;2023-05-10T04:12:20;12.70;99.90
4820;DHT22;2424;49.696;6.630;2023-05-10T04:17:43;12.70;99.90
4820;DHT22;2424;49.696;6.630;2023-05-10T04:23:05;12.70;99.90
4820;DHT22;2424;49.696;6.630;2023-05-10T04:28:27;12.70;99.90
4820;DHT22;2424;49.696;6.630;2023-05-10T04:33:50;12.70;99.90
4820;DHT22;2424;49.696;6.630;2023-05-10T04:39:12;12.60;99.90
4820;DHT22;2424;49.696;6.630;2023-05-10T04:44:35;12.70;99.90
4820;DHT22;2424;49.696;6.630;2023-05-10T04:49:58;12.50;99.90
4820;DHT22;2424;49.696;6.630;2023-05-10T04:55:20;12.50;99.90
4820;DHT22;2424;49.696;6.630;2023-05-10T05:00:42;12.40;99.90
4820;DHT22;2424;49.696;6.630;2023-05-10T05:06:06;12.40;99.90
4820;DHT22;2424;49.696;6.630;2023-05-10T05:11:28;12.40;99.90
4820;DHT22;2424;49.696;6.630;2023-05-10T05:16:50;12.30;99.90
4820;DHT22;2424;49.696;6.630;2023-05-10T05:22:14;12.30;99.90
4820;DHT22;2424;49.696;6.630;2023-05-10T05:27:35;12.20;99.90
4820;DHT22;2424;49.696;6.630;2023-05-10T05:32:58;12.30;99.90
4820;DHT22;2424;49.696;6.630;2023-05-10T05:38:21;12.30;99.90
4820;DHT22;2424;49.696;6.630;2023-05-10T05:43:43;12.10;99.90
4820;DHT22;2424;49.696;6.630;2023-05-10T05:49:05;12.20;99.90
4820;DHT22;2424;49.696;6.630;2023-05-10T05:54:28;12.30;99.90
4820;DHT22;2424;49.696;6.630;2023-05-10T05:59:50;12.30;99.90
4820;DHT22;2424;49.696;6.630;2023-05-10T06:05:12;12.30;99.90
4820;DHT22;2424;49.696;6.630;2023-05-10T06:10:35;12.30;99.90
4820;DHT22;2424;49.696;6.630;2023-05-10T06:15:58;12.40;99.90
4820;DHT22;2424;49.696;6.630;2023-05-10T06:21:20;12.30;99.90
4820;DHT22;2424;49.696;6.630;2023-05-10T06:26:43;12.30;99.90
4820;DHT22;2424;49.696;6.630;2023-05-10T06:32:05;12.20;99.90
4820;DHT22;2424;49.696;6.630;2023-05-10T06:37:27;12.20;99.90
4820;DHT22;2424;49.696;6.630;2023-05-10T06:42:51;12.10;99.90
4820;DHT22;2424;49.696;6.630;2023-05-10T06:48:13;12.20;99.90
4820;DHT22;2424;49.696;6.630;2023-05-10T06:53:34;12.20;99.90
4820;DHT22;2424;49.696;6.630;2023-05-10T06:58:58;12.20;99.90
4820;DHT22;2424;49.696;6.630;2023-05-10T07:04:20;12.20;99.90
4820;DHT22;2424;49.696;6.630;2023-05-10T07:09:41;12.20;99.90
4820;DHT22;2424;49.696;6.630;2023-05-10T07:15:06;12.20;99.90
4820;DHT22;2424;49.696;6.630;2023-05-10T07:20:28;12.20;99.90
4820;DHT22;2424;49.696;6.630;2023-05-10T07:25:51;12.20;99.90
4820;DHT22;2424;49.696;6.630;2023-05-10T07:31:15;12.20;99.90
4820;DHT22;2424;49.696;6.630;2023-05-10T07:36:37;12.30;99.90
4820;DHT22;2424;49.696;6.630;2023-05-10T07:41:59;12.30;99.90
4820;DHT22;2424;49.696;6.630;2023-05-10T07:47:22;12.30;99.90
4820;DHT22;2424;49.696;6.630;2023-05-10T07:52:45;12.40;99.90
4820;DHT22;2424;49.696;6.630;2023-05-10T07:58:07;12.50;99.90
4820;DHT22;2424;49.696;6.630;2023-05-10T08:03:30;12.60;99.90
4820;DHT22;2424;49.696;6.630;2023-05-10T08:08:52;12.70;99.90
4820;DHT22;2424;49.696;6.630;2023-05-10T08:14:14;12.80;99.90
4820;DHT22;2424;49.696;6.630;2023-05-10T08:19:37;12.90;99.90
4820;DHT22;2424;49.696;6.630;2023-05-10T08:25:00;12.90;99.90
4820;DHT22;2424;49.696;6.630;2023-05-10T08:30:22;12.90;99.90
4820;DHT22;2424;49.696;6.630;2023-05-10T08:35:45;12.80;99.90
4820;DHT22;2424;49.696;6.630;2023-05-10T08:41:07;12.60;99.90
4820;DHT22;2424;49.696;6.630;2023-05-10T08:46:31;12.20;99.90
4820;DHT22;2424;49.696;6.630;2023-05-10T08:51:57;12.40;99.90
4820;DHT22;2424;49.696;6.630;2023-05-10T08:57:21;12.10;99.90
4820;DHT22;2424;49.696;6.630;2023-05-10T09:02:43;12.40;99.90
4820;DHT22;2424;49.696;6.630;2023-05-10T09:08:08;12.40;99.90
4820;DHT22;2424;49.696;6.630;2023-05-10T09:13:30;12.50;99.90
4820;DHT22;2424;49.696;6.630;2023-05-10T09:18:53;12.60;99.90
4820;DHT22;2424;49.696;6.630;2023-05-10T09:24:16;12.60;99.90
4820;DHT22;2424;49.696;6.630;2023-05-10T09:29:42;12.40;99.90
4820;DHT22;2424;49.696;6.630;2023-05-10T09:35:09;12.30;99.90
4820;DHT22;2424;49.696;6.630;2023-05-10T09:40:32;12.30;99.90
4820;DHT22;2424;49.696;6.630;2023-05-10T09:45:54;12.30;99.90
4820;DHT22;2424;49.696;6.630;2023-05-10T09:51:19;12.20;99.90
4820;DHT22;2424;49.696;6.630;2023-05-10T09:56:43;12.20;99.90
4820;DHT22;2424;49.696;6.630;2023-05-10T10:02:05;12.40;99.90
4820;DHT22;2424;49.696;6.630;2023-05-10T10:07:27;12.80;99.90
4820;DHT22;2424;49.696;6.630;2023-05-10T10:12:51;12.80;99.90
4820;DHT22;2424;49.696;6.630;2023-05-10T10:18:13;12.90;99.90
4820;DHT22;2424;49.696;6.630;2023-05-10T10:23:36;12.90;99.90
4820;DHT22;2424;49.696;6.630;2023-05-10T10:29:07;13.00;99.90
4820;DHT22;2424;49.696;6.630;2023-05-10T10:34:32;13.20;99.90
4820;DHT22;2424;49.696;6.630;2023-05-10T10:39:55;13.30;99.90
4820;DHT22;2424;49.696;6.630;2023-05-10T10:45:20;13.50;99.90
4820;DHT22;2424;49.696;6.630;2023-05-10T10:50:44;13.70;99.90
4820;DHT22;2424;49.696;6.630;2023-05-10T10:56:07;14.20;99.90
4820;DHT22;2424;49.696;6.630;2023-05-10T11:01:34;14.00;99.90
4820;DHT22;2424;49.696;6.630;2023-05-10T11:07:17;14.10;99.90
4820;DHT22;2424;49.696;6.630;2023-05-10T11:12:51;14.20;99.90
4820;DHT22;2424;49.696;6.630;2023-05-10T11:18:19;14.20;99.90
4820;DHT22;2424;49.696;6.630;2023-05-10T11:23:52;14.10;99.90
4820;DHT22;2424;49.696;6.630;2023-05-10T11:29:16;14.20;99.90
4820;DHT22;2424;49.696;6.630;2023-05-10T11:34:40;14.10;99.90
4820;DHT22;2424;49.696;6.630;2023-05-10T11:40:02;13.80;99.90
4820;DHT22;2424;49.696;6.630;2023-05-10T11:45:24;13.80;99.90
4820;DHT22;2424;49.696;6.630;2023-05-10T11:50:47;13.70;99.90
4820;DHT22;2424;49.696;6.630;2023-05-10T11:56:10;13.90;99.90
4820;DHT22;2424;49.696;6.630;2023-05-10T12:01:33;14.00;99.90
4820;DHT22;2424;49.696;6.630;2023-05-10T12:06:57;14.00;99.90
4820;DHT22;2424;49.696;6.630;2023-05-10T12:12:19;14.50;99.90
4820;DHT22;2424;49.696;6.630;2023-05-10T12:17:41;14.80;99.90
4820;DHT22;2424;49.696;6.630;2023-05-10T12:23:08;14.30;99.90
4820;DHT22;2424;49.696;6.630;2023-05-10T12:28:31;14.50;99.90
4820;DHT22;2424;49.696;6.630;2023-05-10T12:33:53;14.50;99.90
4820;DHT22;2424;49.696;6.630;2023-05-10T12:39:17;14.60;99.90
4820;DHT22;2424;49.696;6.630;2023-05-10T12:44:39;14.50;99.90
4820;DHT22;2424;49.696;6.630;2023-05-10T12:50:01;14.50;99.90
4820;DHT22;2424;49.696;6.630;2023-05-10T12:55:25;14.40;99.90
4820;DHT22;2424;49.696;6.630;2023-05-10T13:00:47;15.10;99.90
4820;DHT22;2424;49.696;6.630;2023-05-10T13:06:09;15.70;99.90
4820;DHT22;2424;49.696;6.630;2023-05-10T13:11:32;15.50;99.90
4820;DHT22;2424;49.696;6.630;2023-05-10T13:16:54;15.10;99.90
4820;DHT22;2424;49.696;6.630;2023-05-10T13:22:16;15.20;99.90
4820;DHT22;2424;49.696;6.630;2023-05-10T13:27:40;15.80;99.90
4820;DHT22;2424;49.696;6.630;2023-05-10T13:33:02;16.10;99.90
4820;DHT22;2424;49.696;6.630;2023-05-10T13:38:24;16.20;99.90
4820;DHT22;2424;49.696;6.630;2023-05-10T13:43:47;16.70;99.90
4820;DHT22;2424;49.696;6.630;2023-05-10T13:49:10;16.90;99.90
4820;DHT22;2424;49.696;6.630;2023-05-10T13:54:32;17.00;99.90
4820;DHT22;2424;49.696;6.630;2023-05-10T13:59:55;17.30;99.90
4820;DHT22;2424;49.696;6.630;2023-05-10T14:05:17;17.00;99.90
4820;DHT22;2424;49.696;6.630;2023-05-10T14:10:39;17.30;99.90
4820;DHT22;2424;49.696;6.630;2023-05-10T14:16:03;17.30;99.90
4820;DHT22;2424;49.696;6.630;2023-05-10T14:21:25;16.80;99.90
4820;DHT22;2424;49.696;6.630;2023-05-10T14:26:47;16.70;99.90
4820;DHT22;2424;49.696;6.630;2023-05-10T14:32:10;16.60;99.90
4820;DHT22;2424;49.696;6.630;2023-05-10T14:37:32;16.80;99.90
4820;DHT22;2424;49.696;6.630;2023-05-10T14:42:54;17.20;99.90
4820;DHT22;2424;49.696;6.630;2023-05-10T14:48:18;17.30;99.90
4820;DHT22;2424;49.696;6.630;2023-05-10T14:53:40;17.30;99.90
4820;DHT22;2424;49.696;6.630;2023-05-10T14:59:02;17.70;99.90
4820;DHT22;2424;49.696;6.630;2023-05-10T15:04:25;17.20;99.90
4820;DHT22;2424;49.696;6.630;2023-05-10T15:09:47;17.10;99.90
4820;DHT22;2424;49.696;6.630;2023-05-10T15:15:10;16.80;99.90
4820;DHT22;2424;49.696;6.630;2023-05-10T15:20:33;16.80;99.90
4820;DHT22;2424;49.696;6.630;2023-05-10T15:25:56;16.80;99.90
4820;DHT22;2424;49.696;6.630;2023-05-10T15:31:18;16.80;99.90
4820;DHT22;2424;49.696;6.630;2023-05-10T15:36:42;16.80;99.90
4820;DHT22;2424;49.696;6.630;2023-05-10T15:42:04;16.80;99.90
4820;DHT22;2424;49.696;6.630;2023-05-10T15:47:26;16.80;99.90
4820;DHT22;2424;49.696;6.630;2023-05-10T15:52:50;16.50;99.90
4820;DHT22;2424;49.696;6.630;2023-05-10T15:58:12;16.60;99.90
4820;DHT22;2424;49.696;6.630;2023-05-10T16:03:34;16.20;99.90
4820;DHT22;2424;49.696;6.630;2023-05-10T16:08:57;16.30;99.90
4820;DHT22;2424;49.696;6.630;2023-05-10T16:14:19;16.30;99.90
4820;DHT22;2424;49.696;6.630;2023-05-10T16:19:43;16.10;99.90
4820;DHT22;2424;49.696;6.630;2023-05-10T16:25:09;16.00;99.90
4820;DHT22;2424;49.696;6.630;2023-05-10T16:30:31;16.40;99.90
4820;DHT22;2424;49.696;6.630;2023-05-10T16:35:53;16.50;99.90
4820;DHT22;2424;49.696;6.630;2023-05-10T16:41:16;16.80;99.90
4820;DHT22;2424;49.696;6.630;2023-05-10T16:46:38;17.00;99.90
4820;DHT22;2424;49.696;6.630;2023-05-10T16:52:00;17.00;99.90
4820;DHT22;2424;49.696;6.630;2023-05-10T16:57:24;16.90;99.90
4820;DHT22;2424;49.696;6.630;2023-05-10T17:02:46;16.90;99.90
4820;DHT22;2424;49.696;6.630;2023-05-10T17:08:08;16.70;99.90
4820;DHT22;2424;49.696;6.630;2023-05-10T17:13:32;16.90;99.90
4820;DHT22;2424;49.696;6.630;2023-05-10T17:18:54;16.90;99.90
4820;DHT22;2424;49.696;6.630;2023-05-10T17:24:16;16.60;99.90
4820;DHT22;2424;49.696;6.630;2023-05-10T17:29:39;16.70;99.90
4820;DHT22;2424;49.696;6.630;2023-05-10T17:35:01;16.60;99.90
4820;DHT22;2424;49.696;6.630;2023-05-10T17:40:26;16.40;99.90
4820;DHT22;2424;49.696;6.630;2023-05-10T17:45:49;16.10;99.90
4820;DHT22;2424;49.696;6.630;2023-05-10T17:51:11;15.80;99.90
4820;DHT22;2424;49.696;6.630;2023-05-10T17:56:33;15.50;99.90
4820;DHT22;2424;49.696;6.630;2023-05-10T18:01:57;15.30;99.90
4820;DHT22;2424;49.696;6.630;2023-05-10T18:07:18;14.80;99.90
4820;DHT22;2424;49.696;6.630;2023-05-10T18:12:43;14.80;99.90
4820;DHT22;2424;49.696;6.630;2023-05-10T18:18:06;14.50;99.90
4820;DHT22;2424;49.696;6.630;2023-05-10T18:23:28;14.30;99.90
4820;DHT22;2424;49.696;6.630;2023-05-10T18:28:50;14.40;99.90
4820;DHT22;2424;49.696;6.630;2023-05-10T18:34:13;14.20;99.90
4820;DHT22;2424;49.696;6.630;2023-05-10T18:39:35;14.00;99.90
4820;DHT22;2424;49.696;6.630;2023-05-10T18:44:57;14.10;99.90
4820;DHT22;2424;49.696;6.630;2023-05-10T18:50:21;14.00;99.90
4820;DHT22;2424;49.696;6.630;2023-05-10T18:55:43;13.90;99.90
4820;DHT22;2424;49.696;6.630;2023-05-10T19:01:05;13.90;99.90
4820;DHT22;2424;49.696;6.630;2023-05-10T19:06:28;13.90;99.90
4820;DHT22;2424;49.696;6.630;2023-05-10T19:11:51;13.80;99.90
4820;DHT22;2424;49.696;6.630;2023-05-10T19:17:13;13.70;99.90
4820;DHT22;2424;49.696;6.630;2023-05-10T19:22:37;13.50;99.90
4820;DHT22;2424;49.696;6.630;2023-05-10T19:27:59;13.50;99.90
4820;DHT22;2424;49.696;6.630;2023-05-10T19:33:21;13.40;99.90
4820;DHT22;2424;49.696;6.630;2023-05-10T19:38:45;13.40;99.90
4820;DHT22;2424;49.696;6.630;2023-05-10T19:44:07;13.20;99.90
4820;DHT22;2424;49.696;6.630;2023-05-10T19:49:29;13.00;99.90
4820;DHT22;2424;49.696;6.630;2023-05-10T19:54:52;12.90;99.90
4820;DHT22;2424;49.696;6.630;2023-05-10T20:00:14;12.80;99.90
4820;DHT22;2424;49.696;6.630;2023-05-10T20:05:37;12.70;99.90
4820;DHT22;2424;49.696;6.630;2023-05-10T20:11:00;12.50;99.90
4820;DHT22;2424;49.696;6.630;2023-05-10T20:16:23;12.50;99.90
4820;DHT22;2424;49.696;6.630;2023-05-10T20:21:45;12.40;99.90
4820;DHT22;2424;49.696;6.630;2023-05-10T20:27:08;12.40;99.90
4820;DHT22;2424;49.696;6.630;2023-05-10T20:32:32;12.10;99.90
4820;DHT22;2424;49.696;6.630;2023-05-10T20:37:55;12.10;99.90
4820;DHT22;2424;49.696;6.630;2023-05-10T20:43:18;12.00;99.90
4820;DHT22;2424;49.696;6.630;2023-05-10T20:48:40;12.00;99.90
4820;DHT22;2424;49.696;6.630;2023-05-10T20:54:03;11.90;99.90
4820;DHT22;2424;49.696;6.630;2023-05-10T20:59:26;11.80;99.90
4820;DHT22;2424;49.696;6.630;2023-05-10T21:04:48;11.70;99.90
4820;DHT22;2424;49.696;6.630;2023-05-10T21:10:10;11.60;99.90
4820;DHT22;2424;49.696;6.630;2023-05-10T21:15:34;11.60;99.90
4820;DHT22;2424;49.696;6.630;2023-05-10T21:20:56;11.50;99.90
4820;DHT22;2424;49.696;6.630;2023-05-10T21:26:19;11.40;99.90
4820;DHT22;2424;49.696;6.630;2023-05-10T21:31:43;11.40;99.90
4820;DHT22;2424;49.696;6.630;2023-05-10T21:37:05;11.30;99.90
4820;DHT22;2424;49.696;6.630;2023-05-10T21:42:26;11.30;99.90
4820;DHT22;2424;49.696;6.630;2023-05-10T21:47:50;11.20;99.90
4820;DHT22;2424;49.696;6.630;2023-05-10T21:53:12;11.10;99.90
4820;DHT22;2424;49.696;6.630;2023-05-10T21:58:34;11.00;99.90
4820;DHT22;2424;49.696;6.630;2023-05-10T22:03:57;11.00;99.90
4820;DHT22;2424;49.696;6.630;2023-05-10T22:09:19;10.90;99.90
4820;DHT22;2424;49.696;6.630;2023-05-10T22:14:41;10.90;99.90
4820;DHT22;2424;49.696;6.630;2023-05-10T22:20:06;10.80;99.90
4820;DHT22;2424;49.696;6.630;2023-05-10T22:25:28;10.60;99.90
4820;DHT22;2424;49.696;6.630;2023-05-10T22:30:50;10.60;99.90
4820;DHT22;2424;49.696;6.630;2023-05-10T22:36:13;10.60;99.90
4820;DHT22;2424;49.696;6.630;2023-05-10T22:41:36;10.50;99.90
4820;DHT22;2424;49.696;6.630;2023-05-10T22:46:58;10.50;99.90
4820;DHT22;2424;49.696;6.630;2023-05-10T22:52:21;10.50;99.90
4820;DHT22;2424;49.696;6.630;2023-05-10T22:57:43;10.50;99.90
4820;DHT22;2424;49.696;6.630;2023-05-10T23:03:05;10.40;99.90
4820;DHT22;2424;49.696;6.630;2023-05-10T23:08:28;10.40;99.90
4820;DHT22;2424;49.696;6.630;2023-05-10T23:13:50;10.40;99.90
4820;DHT22;2424;49.696;6.630;2023-05-10T23:19:12;10.50;99.90
4820;DHT22;2424;49.696;6.630;2023-05-10T23:24:36;10.50;99.90
4820;DHT22;2424;49.696;6.630;2023-05-10T23:29:58;10.50;99.90
4820;DHT22;2424;49.696;6.630;2023-05-10T23:35:20;10.50;99.90
4820;DHT22;2424;49.696;6.630;2023-05-10T23:40:46;10.50;99.90
4820;DHT22;2424;49.696;6.630;2023-05-10T23:46:08;10.50;99.90
4820;DHT22;2424;49.696;6.630;2023-05-10T23:51:30;10.40;99.90
4820;DHT22;2424;49.696;6.630;2023-05-10T23:56:54;10.40;99.90
